Wheatley, Arkansas
Current Conditions -  °F | °C
As of 6:55 PM on Tuesday 21 Oct 2014 (Local Time) from KSGT Reporting Station
Clear Clear  
Wind Chill: 70°   Ceiling: Unl
Heat Index: 70°   Visibility: 10mi
Dew Point: 50°   Wind: 5mph
Humidity: 49%   Direction: 50°NE
Pressure: 30.06"   Gusts: NA
Location:  34.91°N, 91.11°W
Report Text: KSGT 212355Z AUTO 05004KT 10SM CLR 21/10 A3006 RMK AO1 10260 20190 402600110 52003
Loading
Personal Weather Stations






























Interactive Weather Map
Tropical Storm Tracking
New forecast layout! Learn more

10-Day Weather Forecast

Advertisements
Track Severe Weather on mobile